Data for 11/09/2014

Time Sea-Level Adjusted Pressure Absolute Pressure Temperature Relative Humidity Dew Point   
(mb) (inHg) (mb) (inHg) (C) (F) (%) (C) (F)
00:05 1018 30.06 847 25.01 10 50 28 -7.5 18.5
00:10 1018 30.06 847 25.01 10.2 50.4 29 -7.2 19
00:15 1018 30.06 847 25.01 10.1 50.1 29 -7.1 19.2
00:20 1018 30.06 847 25.01 9.9 49.8 30 -6.9 19.5
00:25 1018 30.06 847 25.01 9.7 49.5 30 -7.1 19.2
00:30 1018 30.06 847 25.01 9.8 49.7 30 -6.8 19.7
00:35 1018 30.06 847 25.01 9.6 49.3 32 -6.5 20.3
00:40 1018 30.06 847 25.01 9.6 49.3 31 -6.8 19.8
00:45 1018 30.06 847 25.01 9.5 49 32 -6.3 20.7
00:50 1018 30.06 847 25.01 9.2 48.5 33 -6.3 20.7
00:55 1018 30.06 847 25.01 9 48.1 34 -5.9 21.4
01:00 1018 30.06 847 25.01 8.6 47.5 32 -7.1 19.2
01:05 1018 30.06 847 25.01 9.4 48.9 31 -7 19.3
01:10 1017 30.03 847 25.01 9.6 49.2 33 -5.9 21.4
01:15 1017 30.03 847 25.01 9.6 49.2 32 -6.3 20.6
01:20 1017 30.03 847 25.01 9.4 49 32 -6.3 20.6
01:25 1017 30.03 847 25.01 9.5 49.1 32 -6.6 20.2
01:30 1017 30.03 846 24.98 9.6 49.3 31 -6.6 20.1
01:35 1017 30.03 846 24.98 9.5 49.2 32 -6.4 20.5
01:40 1017 30.03 846 24.98 9.5 49 32 -6.5 20.3
01:45 1017 30.03 846 24.98 9.5 49.1 32 -6.4 20.5
01:50 1017 30.03 846 24.98 9.5 49 32 -6.4 20.5
01:55 1017 30.03 846 24.98 9.4 48.9 33 -6.1 21
02:00 1017 30.03 846 24.98 9.3 48.8 33 -6.1 21
02:05 1017 30.03 846 24.98 9.1 48.4 35 -5.4 22.3
02:10 1017 30.03 846 24.98 8 46.4 39 -5.2 22.6
02:15 1017 30.03 846 24.98 7.6 45.6 38 -6 21.3
02:20 1017 30.03 846 24.98 8 46.4 37 -5.7 21.8
02:25 1017 30.03 846 24.98 8.2 46.7 36 -5.8 21.5
02:30 1017 30.03 846 24.98 8.4 47.2 37 -5.6 22
02:35 1017 30.03 846 24.98 8.5 47.2 38 -5 22.9
02:40 1017 30.03 846 24.98 8.6 47.5 36 -5.5 22.1
02:45 1017 30.03 846 24.98 8.8 47.8 35 -5.8 21.5
02:50 1017 30.03 846 24.98 9.1 48.4 35 -5.4 22.2
02:55 1017 30.03 846 24.98 9.1 48.3 35 -5.4 22.2
03:00 1017 30.03 846 24.98 9.1 48.5 36 -5.2 22.7
03:05 1017 30.03 846 24.98 8.8 47.8 39 -4.3 24.2
03:10 1017 30.03 846 24.98 8 46.4 40 -4.8 23.4
03:15 1016 30 846 24.98 7.9 46.2 39 -5.2 22.7
03:20 1016 30 846 24.98 8 46.4 42 -4 24.7
03:25 1016 30 846 24.98 7.5 45.5 41 -4.8 23.4
03:30 1016 30 846 24.98 7.7 45.9 39 -5.3 22.5
03:35 1016 30 845 24.95 8.1 46.7 39 -5.1 22.8
03:40 1016 30 845 24.95 8.4 47.1 38 -5.2 22.7
03:45 1016 30 845 24.95 8.5 47.4 38 -4.9 23.2
03:50 1016 30 845 24.95 8.4 47.2 39 -4.9 23.3
03:55 1016 30 845 24.95 8.5 47.3 38 -5 23
04:00 1016 30 845 24.95 8.7 47.7 38 -4.9 23.1
04:05 1016 30 845 24.95 8.7 47.6 39 -4.6 23.7
04:10 1016 30 845 24.95 8.6 47.5 38 -4.7 23.5
04:15 1016 30 845 24.95 8.4 47.2 42 -3.9 25
04:20 1015 29.97 845 24.95 7.9 46.2 43 -4 24.8
04:25 1015 29.97 845 24.95 7.6 45.6 43 -4.2 24.5
04:30 1015 29.97 845 24.95 7.8 46.1 41 -4.7 23.5
04:35 1015 29.97 845 24.95 8.1 46.6 40 -4.7 23.5
04:40 1015 29.97 844 24.92 8.2 46.8 39 -4.8 23.3
04:45 1015 29.97 844 24.92 8.4 47.2 39 -4.8 23.4
04:50 1015 29.97 844 24.92 8.4 47.1 39 -4.7 23.5
04:55 1015 29.97 844 24.92 8.5 47.2 39 -4.8 23.3
05:00 1015 29.97 844 24.92 8.6 47.4 39 -4.6 23.6
05:05 1015 29.97 844 24.92 8.5 47.4 39 -4.6 23.7
05:10 1015 29.97 844 24.92 8.4 47 41 -4.3 24.3
05:15 1015 29.97 844 24.92 8.3 46.9 40 -4.6 23.7
05:20 1014 29.94 844 24.92 8.5 47.3 39 -4.7 23.6
05:25 1014 29.94 844 24.92 8.6 47.6 39 -4.5 24
05:30 1014 29.94 844 24.92 8.6 47.4 39 -4.5 23.8
05:35 1014 29.94 844 24.92 8.6 47.4 40 -4.1 24.5
05:40 1014 29.94 843 24.89 8.6 47.4 41 -4 24.8
05:45 1014 29.94 844 24.92 8.8 47.9 42 -3.5 25.7
05:50 1014 29.94 844 24.92 9.3 48.7 41 -3.4 25.9
05:55 1014 29.94 843 24.89 9.6 49.3 40 -3.4 25.9
06:00 1014 29.94 843 24.89 10.1 50.1 39 -3.4 25.9
06:05 1014 29.94 843 24.89 10.7 51.2 37 -3.3 26
06:10 1014 29.94 843 24.89 11.4 52.6 34 -4 24.8
06:15 1014 29.94 843 24.89 12.3 54.1 32 -4 24.8
06:20 1014 29.94 843 24.89 12.7 54.8 31 -3.8 25.1
06:25 1014 29.94 843 24.89 12.8 55.1 31 -3.8 25.2
06:30 1014 29.94 843 24.89 12.8 55.1 31 -3.7 25.3
06:35 1014 29.94 843 24.89 12.8 55.1 31 -4 24.8
06:40 1013 29.91 843 24.89 12.9 55.2 31 -3.9 25
06:45 1013 29.91 842 24.86 12.8 55 31 -3.7 25.4
06:50 1013 29.91 842 24.86 12.6 54.7 31 -4 24.8
06:55 1013 29.91 842 24.86 12.8 55 31 -4 24.8
07:00 1013 29.91 842 24.86 12.8 55 30 -4.2 24.5
07:05 1013 29.91 842 24.86 12.9 55.2 30 -4.1 24.6
07:10 1012 29.88 842 24.86 12.9 55.2 31 -4 24.9
07:15 1012 29.88 841 24.83 12.7 54.9 30 -4.2 24.5
07:20 1012 29.88 841 24.83 12.8 55 30 -4.2 24.4
07:25 1012 29.88 841 24.83 12.8 55 30 -4.1 24.5
07:30 1012 29.88 841 24.83 12.8 55 30 -4.4 24
07:35 1012 29.88 842 24.86 12.9 55.2 29 -4.4 24
07:40 1013 29.91 842 24.86 13.1 55.5 29 -4.7 23.6
07:45 1013 29.91 842 24.86 13.1 55.5 29 -4.5 23.9
07:50 1013 29.91 842 24.86 13 55.4 29 -4.4 24
07:55 1012 29.88 842 24.86 12.7 54.8 30 -4.2 24.4
08:00 1013 29.91 842 24.86 12.4 54.2 31 -4.3 24.3
08:05 1012 29.88 842 24.86 12.2 53.9 31 -4.3 24.2
08:10 1013 29.91 842 24.86 12.1 53.7 32 -4.3 24.3
08:15 1013 29.91 842 24.86 12 53.6 32 -4.2 24.4
08:20 1013 29.91 842 24.86 11.9 53.4 32 -4.1 24.6
08:25 1012 29.88 842 24.86 12.2 53.9 32 -3.9 24.9
08:30 1012 29.88 841 24.83 12.5 54.4 31 -4 24.7
08:35 1012 29.88 841 24.83 12.7 54.8 32 -3.6 25.5
08:40 1012 29.88 841 24.83 12.6 54.6 33 -3.4 25.9
08:45 1012 29.88 841 24.83 12.6 54.6 32 -3.6 25.6
08:50 1012 29.88 841 24.83 12.8 55.1 32 -3.3 26.1
08:55 1012 29.88 841 24.83 12.8 55 32 -3.4 25.9
09:00 1012 29.88 841 24.83 12.9 55.2 32 -3.3 26
09:05 1012 29.88 841 24.83 12.9 55.2 33 -3.1 26.4
09:10 1011 29.85 841 24.83 12.9 55.1 33 -3.1 26.4
09:15 1011 29.85 840 24.81 12.8 55.1 33 -3 26.5
09:20 1011 29.85 840 24.81 13 55.3 33 -3 26.6
09:25 1011 29.85 840 24.81 13.1 55.5 33 -3 26.6
09:30 1011 29.85 840 24.81 13.2 55.7 32 -3 26.6
09:35 1011 29.85 840 24.81 13.3 55.9 33 -2.6 27.2
09:40 1011 29.85 840 24.81 13.2 55.8 33 -2.6 27.3
09:45 1010 29.83 840 24.81 13.3 56 32 -2.8 27
09:50 1010 29.83 839 24.78 13.5 56.3 32 -2.7 27.2
09:55 1010 29.83 839 24.78 13.6 56.4 32 -2.7 27.1
10:00 1010 29.83 839 24.78 13.8 56.8 32 -2.7 27.1
10:05 1010 29.83 839 24.78 13.7 56.7 32 -2.6 27.3
10:10 1010 29.83 839 24.78 13.7 56.6 33 -2.4 27.7
10:15 1010 29.83 839 24.78 13.6 56.6 32 -2.5 27.5
10:20 1010 29.83 839 24.78 13.7 56.6 32 -2.5 27.5
10:25 1010 29.83 839 24.78 13.7 56.7 32 -2.4 27.6
10:30 1009 29.8 839 24.78 13.7 56.7 33 -2.2 28
10:35 1009 29.8 839 24.78 13.9 56.9 32 -2.7 27.2
10:40 1009 29.8 838 24.75 14.2 57.6 31 -2.6 27.4
10:45 1009 29.8 838 24.75 14.4 58 31 -2.6 27.3
10:50 1009 29.8 838 24.75 14.6 58.2 30 -2.7 27.2
10:55 1009 29.8 838 24.75 14.6 58.3 31 -2.4 27.6
11:00 1009 29.8 838 24.75 14.7 58.4 30 -2.6 27.4
11:05 1008 29.77 838 24.75 14.8 58.6 31 -2.1 28.2
11:10 1008 29.77 838 24.75 14.7 58.4 31 -2.2 28.1
11:15 1008 29.77 837 24.72 14.8 58.6 30 -2.5 27.6
11:20 1008 29.77 837 24.72 14.9 58.8 30 -2.3 27.8
11:25 1008 29.77 837 24.72 15 59 31 -2.1 28.2
11:30 1008 29.77 837 24.72 14.9 58.9 31 -2 28.4
11:35 1008 29.77 837 24.72 14.9 58.7 31 -2.2 28.1
11:40 1008 29.77 837 24.72 14.9 58.8 31 -2.1 28.3
11:45 1008 29.77 837 24.72 14.9 58.9 30 -2.3 27.9
11:50 1007 29.74 837 24.72 15 59 30 -2.5 27.5
11:55 1007 29.74 837 24.72 15.1 59.2 30 -2.3 27.8
12:00 1007 29.74 836 24.69 15.1 59.2 29 -2.5 27.5
12:05 1007 29.74 836 24.69 15.2 59.3 29 -2.5 27.4
12:10 1007 29.74 836 24.69 15.3 59.5 28 -2.9 26.8
12:15 1007 29.74 836 24.69 15.4 59.7 28 -2.8 26.9
12:20 1007 29.74 836 24.69 15.5 59.8 28 -2.9 26.7
12:25 1007 29.74 836 24.69 15.6 60.1 28 -2.8 27
12:30 1006 29.71 836 24.69 15.6 60 28 -2.6 27.3
12:35 1006 29.71 835 24.66 15.5 60 28 -2.6 27.4
12:40 1006 29.71 835 24.66 15.6 60 28 -2.7 27.2
12:45 1006 29.71 835 24.66 15.6 60 29 -2.5 27.5
12:50 1006 29.71 835 24.66 15.6 60 28 -2.8 27
12:55 1005 29.68 834 24.63 15.6 60 28 -2.8 27
13:00 1005 29.68 834 24.63 15.6 60.1 28 -2.9 26.7
13:05 1005 29.68 834 24.63 15.6 60.1 28 -2.7 27.1
13:10 1005 29.68 834 24.63 15.7 60.2 28 -2.6 27.3
13:15 1005 29.68 834 24.63 15.7 60.3 28 -2.5 27.5
13:20 1004 29.65 834 24.63 15.8 60.5 28 -2.6 27.3
13:25 1004 29.65 834 24.63 16 60.9 27 -2.6 27.3
13:30 1004 29.65 833 24.6 16.2 61.2 27 -2.6 27.3
13:35 1004 29.65 833 24.6 16.3 61.3 27 -2.5 27.6
13:40 1004 29.65 833 24.6 16.4 61.5 27 -2.6 27.3
13:45 1004 29.65 833 24.6 16.5 61.7 27 -2.7 27.2
13:50 1004 29.65 833 24.6 16.4 61.4 26 -3 26.6
13:55 1004 29.65 833 24.6 16.1 61 27 -3 26.7
14:00 1004 29.65 833 24.6 15.9 60.6 27 -3.1 26.4
14:05 1004 29.65 833 24.6 15.7 60.3 28 -2.8 27
14:10 1003 29.62 833 24.6 15.6 60.1 27 -3 26.6
14:15 1003 29.62 833 24.6 15.6 60.1 28 -2.8 27
14:20 1003 29.62 832 24.57 15.5 60 28 -2.7 27.2
14:25 1003 29.62 832 24.57 15.5 59.9 28 -2.6 27.3
14:30 1003 29.62 832 24.57 15.6 60 29 -2.5 27.5
14:35 1003 29.62 832 24.57 15.5 59.9 29 -2.5 27.6
14:40 1003 29.62 832 24.57 15.4 59.8 28 -2.7 27.1
14:45 1003 29.62 832 24.57 15.6 60 28 -2.7 27.1
14:50 1003 29.62 832 24.57 15.7 60.2 28 -2.8 26.9
14:55 1003 29.62 832 24.57 15.7 60.3 28 -2.6 27.2
15:00 1002 29.59 832 24.57 15.8 60.4 27 -2.9 26.7
15:05 1002 29.59 832 24.57 16 60.7 27 -2.8 26.9
15:10 1002 29.59 831 24.54 15.9 60.6 27 -2.9 26.8
15:15 1002 29.59 831 24.54 15.8 60.5 27 -2.9 26.7
15:20 1002 29.59 831 24.54 15.9 60.5 27 -2.8 27
15:25 1002 29.59 831 24.54 15.9 60.7 27 -2.8 26.9
15:30 1002 29.59 831 24.54 16 60.7 27 -2.9 26.8
15:35 1002 29.59 831 24.54 15.9 60.5 27 -3.3 26.1
15:40 1002 29.59 831 24.54 15.9 60.6 27 -3.2 26.2
15:45 1001 29.56 831 24.54 16 60.7 27 -3.1 26.4
15:50 1001 29.56 831 24.54 15.9 60.6 27 -3 26.6
15:55 1001 29.56 830 24.51 15.8 60.4 27 -3.1 26.5
16:00 1001 29.56 830 24.51 15.7 60.3 27 -3 26.6
16:05 1001 29.56 830 24.51 15.7 60.3 27 -3 26.5
16:10 1001 29.56 831 24.54 15.6 60 31 -1.5 29.3
16:15 1001 29.56 831 24.54 15.2 59.3 30 -2.1 28.3
16:20 1001 29.56 831 24.54 15 59 31 -1.9 28.6
16:25 1001 29.56 831 24.54 14.9 58.9 31 -1.9 28.6
16:30 1001 29.56 831 24.54 14.9 58.8 31 -2.1 28.2
16:35 1001 29.56 831 24.54 14.8 58.7 29 -2.7 27.1
16:40 1001 29.56 831 24.54 14.9 58.9 32 -1.6 29
16:45 1002 29.59 831 24.54 14.8 58.6 32 -1.6 29
16:50 1002 29.59 831 24.54 14.5 58.2 34 -1.2 29.8
16:55 1002 29.59 831 24.54 13.5 56.4 40 0.2 32.3
17:00 1002 29.59 831 24.54 12.4 54.3 47 1.6 34.8
17:05 1002 29.59 831 24.54 11.4 52.6 52 1.9 35.4
17:10 1002 29.59 831 24.54 10.7 51.3 55 2 35.6
17:15 1002 29.59 831 24.54 10.5 50.8 53 1.4 34.5
17:20 1002 29.59 831 24.54 10.3 50.5 58 2.4 36.3
17:25 1002 29.59 831 24.54 10.1 50.2 58 2.3 36.2
17:30 1002 29.59 832 24.57 10 50.1 58 2.2 35.9
17:35 1002 29.59 832 24.57 9.9 49.9 60 2.6 36.7
17:40 1002 29.59 832 24.57 9.7 49.4 65 3.5 38.3
17:45 1003 29.62 832 24.57 9.4 48.8 66 3.4 38.1
17:50 1002 29.59 832 24.57 9.3 48.7 66 3.3 37.9
17:55 1002 29.59 832 24.57 9.1 48.4 67 3.2 37.8
18:00 1003 29.62 832 24.57 8.8 47.8 67 3 37.4
18:05 1003 29.62 832 24.57 8.9 47.9 63 2.2 35.9
18:10 1002 29.59 832 24.57 9.2 48.5 63 2.5 36.6
18:15 1002 29.59 832 24.57 9.1 48.4 63 2.5 36.4
18:20 1002 29.59 832 24.57 9 48.2 64 2.7 36.8
18:25 1002 29.59 832 24.57 8.9 48.1 65 2.8 37.1
18:30 1002 29.59 832 24.57 8.9 47.9 68 3.2 37.8
18:35 1002 29.59 832 24.57 8.6 47.5 69 3.3 37.9
18:40 1003 29.62 832 24.57 8.4 47.1 69 3.2 37.7
18:45 1003 29.62 832 24.57 8.3 46.9 71 3.3 38
18:50 1003 29.62 832 24.57 8.2 46.7 68 2.6 36.6
18:55 1003 29.62 832 24.57 8.3 46.9 69 2.9 37.2
19:00 1003 29.62 832 24.57 8.3 47 69 3 37.3
19:05 1003 29.62 832 24.57 8.3 47 68 2.9 37.2
19:10 1003 29.62 832 24.57 8.3 47 69 3 37.4
19:15 1002 29.59 832 24.57 8.3 46.9 69 2.9 37.2
19:20 1002 29.59 831 24.54 8.2 46.8 70 3.2 37.7
19:25 1002 29.59 832 24.57 8.2 46.7 68 2.7 36.9
19:30 1002 29.59 832 24.57 8.1 46.7 69 2.8 37.1
19:35 1002 29.59 831 24.54 8.2 46.7 71 3.2 37.8
19:40 1002 29.59 832 24.57 8.1 46.6 72 3.3 38
19:45 1003 29.62 832 24.57 7.8 46.1 72 3.1 37.5
19:50 1003 29.62 832 24.57 7.6 45.6 74 3.2 37.7
19:55 1003 29.62 832 24.57 7.6 45.7 73 3 37.5
20:00 1003 29.62 832 24.57 7.5 45.5 73 3 37.3
20:05 1003 29.62 832 24.57 7.2 44.9 75 3.1 37.6
20:10 1003 29.62 832 24.57 7 44.6 77 3.3 38
20:15 1003 29.62 832 24.57 6.9 44.4 78 3.4 38.2
20:20 1003 29.62 832 24.57 6.9 44.3 79 3.4 38.1
20:25 1003 29.62 832 24.57 6.8 44.3 78 3.3 38
20:30 1003 29.62 832 24.57 6.7 44.1 79 3.4 38.1
20:35 1003 29.62 832 24.57 6.4 43.6 81 3.4 38.2
20:40 1003 29.62 832 24.57 6.3 43.4 82 3.4 38.2
20:45 1003 29.62 832 24.57 6.3 43.3 81 3.3 38
20:50 1003 29.62 832 24.57 6.2 43.2 82 3.4 38.1
20:55 1003 29.62 832 24.57 6.2 43.2 83 3.6 38.4
21:00 1003 29.62 832 24.57 6.1 43 83 3.4 38.2
21:05 1003 29.62 832 24.57 6 42.8 82 3.1 37.7
21:10 1003 29.62 832 24.57 6 42.7 83 3.3 38
21:15 1003 29.62 832 24.57 6 42.7 82 3.1 37.6
21:20 1003 29.62 832 24.57 5.9 42.5 82 3.1 37.6
21:25 1003 29.62 832 24.57 5.7 42.2 83 3 37.4
21:30 1003 29.62 832 24.57 5.5 42 84 3.1 37.5
21:35 1003 29.62 832 24.57 5.4 41.8 83 2.8 37.1
21:40 1003 29.62 832 24.57 5.4 41.7 83 2.7 36.8
21:45 1003 29.62 832 24.57 5.4 41.7 83 2.7 36.8
21:50 1003 29.62 832 24.57 5.4 41.7 83 2.7 36.9
21:55 1003 29.62 832 24.57 5.4 41.7 84 2.8 37.1
22:00 1003 29.62 832 24.57 5.3 41.5 84 2.8 37.1
22:05 1003 29.62 832 24.57 5.2 41.3 84 2.7 36.8
22:10 1003 29.62 832 24.57 5 41.1 84 2.6 36.7
22:15 1003 29.62 832 24.57 5 41 84 2.5 36.5
22:20 1003 29.62 832 24.57 4.9 40.8 85 2.5 36.5
22:25 1003 29.62 832 24.57 4.8 40.7 85 2.5 36.5
22:30 1004 29.65 833 24.6 4.1 39.4 85 1.9 35.4
22:35 1004 29.65 833 24.6 2.1 35.8 86 0.1 32.1
22:40 1004 29.65 833 24.6 1 33.8 90 -0.4 31.2
22:45 1004 29.65 833 24.6 0.9 33.6 89 -0.8 30.6
22:50 1004 29.65 834 24.63 0.5 32.9 86 -1.5 29.2
22:55 1004 29.65 834 24.63 0.1 32.2 81 -2.8 27
23:00 1005 29.68 834 24.63 -0.2 31.6 84 -2.6 27.3
23:05 1005 29.68 834 24.63 -0.5 31.1 86 -2.5 27.5
23:10 1005 29.68 834 24.63 -0.8 30.6 86 -2.8 27
23:15 1005 29.68 834 24.63 -1 30.2 87 -2.9 26.8
23:20 1005 29.68 834 24.63 -1.3 29.7 85 -3.4 25.9
23:25 1005 29.68 835 24.66 -1.6 29.1 85 -3.9 25
23:30 1006 29.71 835 24.66 -1.9 28.6 83 -4.4 24
23:35 1006 29.71 835 24.66 -2.1 28.2 84 -4.4 24.1
23:40 1006 29.71 836 24.69 -2.3 27.9 88 -4.1 24.7
23:45 1006 29.71 836 24.69 -2.5 27.5 84 -4.8 23.3
23:50 1007 29.74 836 24.69 -3.2 26.3 86 -5.2 22.7
23:55 1007 29.74 836 24.69 -3.6 25.5 86 -5.6 21.9
24:00 1007 29.74 836 24.69 -4 24.8 84 -6.4 20.5